sensor_id;sensor_type;location;lat;lon;timestamp;temperature;humidity
47921;DHT22;33686;48.770;9.186;2023-08-06T05:17:40;15.60;99.90
47921;DHT22;33686;48.770;9.186;2023-08-06T05:20:06;15.80;99.90
47921;DHT22;33686;48.770;9.186;2023-08-06T05:22:31;15.90;99.90
47921;DHT22;33686;48.770;9.186;2023-08-06T05:24:57;15.80;99.90
47921;DHT22;33686;48.770;9.186;2023-08-06T05:27:22;15.70;99.90
47921;DHT22;33686;48.770;9.186;2023-08-06T05:29:48;15.80;99.90
47921;DHT22;33686;48.770;9.186;2023-08-06T05:32:14;16.50;99.90
47921;DHT22;33686;48.770;9.186;2023-08-06T05:34:39;17.80;99.90
47921;DHT22;33686;48.770;9.186;2023-08-06T05:37:06;17.90;99.90
47921;DHT22;33686;48.770;9.186;2023-08-06T05:39:32;17.90;99.90
47921;DHT22;33686;48.770;9.186;2023-08-06T05:41:57;17.70;99.90
47921;DHT22;33686;48.770;9.186;2023-08-06T05:44:23;17.40;99.90
47921;DHT22;33686;48.770;9.186;2023-08-06T05:46:49;17.50;99.90
47921;DHT22;33686;48.770;9.186;2023-08-06T05:49:15;17.30;99.90
47921;DHT22;33686;48.770;9.186;2023-08-06T05:51:41;17.20;99.90
47921;DHT22;33686;48.770;9.186;2023-08-06T05:54:06;17.00;99.90
47921;DHT22;33686;48.770;9.186;2023-08-06T05:56:32;16.80;99.90
47921;DHT22;33686;48.770;9.186;2023-08-06T05:58:57;16.70;99.90
47921;DHT22;33686;48.770;9.186;2023-08-06T06:01:23;16.70;99.90
47921;DHT22;33686;48.770;9.186;2023-08-06T06:03:48;16.70;99.90
47921;DHT22;33686;48.770;9.186;2023-08-06T06:06:14;16.50;99.90
47921;DHT22;33686;48.770;9.186;2023-08-06T06:08:39;16.40;99.90
47921;DHT22;33686;48.770;9.186;2023-08-06T06:11:05;16.40;99.90
47921;DHT22;33686;48.770;9.186;2023-08-06T06:13:30;16.30;99.90
47921;DHT22;33686;48.770;9.186;2023-08-06T06:15:56;16.20;99.90
47921;DHT22;33686;48.770;9.186;2023-08-06T06:18:22;16.30;99.90
47921;DHT22;33686;48.770;9.186;2023-08-06T06:20:47;16.10;99.90
47921;DHT22;33686;48.770;9.186;2023-08-06T06:23:13;16.20;99.90
47921;DHT22;33686;48.770;9.186;2023-08-06T06:25:57;16.20;99.90
47921;DHT22;33686;48.770;9.186;2023-08-06T06:28:22;16.20;99.90
47921;DHT22;33686;48.770;9.186;2023-08-06T06:30:48;16.20;99.90
47921;DHT22;33686;48.770;9.186;2023-08-06T06:33:13;16.20;99.90
47921;DHT22;33686;48.770;9.186;2023-08-06T06:35:39;16.10;99.90
47921;DHT22;33686;48.770;9.186;2023-08-06T06:38:04;16.10;99.90
47921;DHT22;33686;48.770;9.186;2023-08-06T06:40:30;16.20;99.90
47921;DHT22;33686;48.770;9.186;2023-08-06T06:42:56;16.20;99.90
47921;DHT22;33686;48.770;9.186;2023-08-06T06:45:21;16.20;99.90
47921;DHT22;33686;48.770;9.186;2023-08-06T06:47:47;16.40;99.90
47921;DHT22;33686;48.770;9.186;2023-08-06T06:50:12;16.50;99.90
47921;DHT22;33686;48.770;9.186;2023-08-06T06:52:38;16.80;99.90
47921;DHT22;33686;48.770;9.186;2023-08-06T06:55:04;16.90;99.90
47921;DHT22;33686;48.770;9.186;2023-08-06T06:57:29;17.00;99.90
47921;DHT22;33686;48.770;9.186;2023-08-06T06:59:55;17.10;99.90
47921;DHT22;33686;48.770;9.186;2023-08-06T07:02:21;17.00;99.90
47921;DHT22;33686;48.770;9.186;2023-08-06T07:04:46;16.90;99.90
47921;DHT22;33686;48.770;9.186;2023-08-06T07:07:12;16.70;99.90
47921;DHT22;33686;48.770;9.186;2023-08-06T07:09:37;16.60;99.90
47921;DHT22;33686;48.770;9.186;2023-08-06T07:12:03;16.50;99.90
47921;DHT22;33686;48.770;9.186;2023-08-06T07:14:29;16.40;99.90
47921;DHT22;33686;48.770;9.186;2023-08-06T07:16:54;16.60;99.90
47921;DHT22;33686;48.770;9.186;2023-08-06T07:19:20;16.40;99.90
47921;DHT22;33686;48.770;9.186;2023-08-06T07:21:45;16.30;99.90
47921;DHT22;33686;48.770;9.186;2023-08-06T07:24:11;16.30;99.90
47921;DHT22;33686;48.770;9.186;2023-08-06T07:26:37;16.10;99.90
47921;DHT22;33686;48.770;9.186;2023-08-06T07:29:03;16.10;99.90
47921;DHT22;33686;48.770;9.186;2023-08-06T07:31:28;16.10;99.90
47921;DHT22;33686;48.770;9.186;2023-08-06T07:33:54;15.90;99.90
47921;DHT22;33686;48.770;9.186;2023-08-06T07:36:20;15.90;99.90
47921;DHT22;33686;48.770;9.186;2023-08-06T07:38:45;15.80;99.90
47921;DHT22;33686;48.770;9.186;2023-08-06T07:41:11;15.70;99.90
47921;DHT22;33686;48.770;9.186;2023-08-06T07:43:36;15.90;99.90
47921;DHT22;33686;48.770;9.186;2023-08-06T07:46:02;15.90;99.90
47921;DHT22;33686;48.770;9.186;2023-08-06T07:48:28;15.90;99.90
47921;DHT22;33686;48.770;9.186;2023-08-06T07:50:54;16.00;99.90
47921;DHT22;33686;48.770;9.186;2023-08-06T07:53:20;16.10;99.90
47921;DHT22;33686;48.770;9.186;2023-08-06T07:55:49;16.10;99.90
47921;DHT22;33686;48.770;9.186;2023-08-06T07:58:15;16.20;99.90
47921;DHT22;33686;48.770;9.186;2023-08-06T08:00:40;16.20;99.90
47921;DHT22;33686;48.770;9.186;2023-08-06T08:03:07;16.20;99.90
47921;DHT22;33686;48.770;9.186;2023-08-06T08:05:33;16.20;99.90
47921;DHT22;33686;48.770;9.186;2023-08-06T08:07:58;16.40;99.90
47921;DHT22;33686;48.770;9.186;2023-08-06T08:10:24;16.60;99.90
47921;DHT22;33686;48.770;9.186;2023-08-06T08:12:49;16.60;99.90
47921;DHT22;33686;48.770;9.186;2023-08-06T08:15:15;16.70;99.90
47921;DHT22;33686;48.770;9.186;2023-08-06T08:17:41;16.80;99.90
47921;DHT22;33686;48.770;9.186;2023-08-06T08:20:06;17.10;99.90
47921;DHT22;33686;48.770;9.186;2023-08-06T08:22:32;17.40;99.90
47921;DHT22;33686;48.770;9.186;2023-08-06T08:24:58;17.50;99.90
47921;DHT22;33686;48.770;9.186;2023-08-06T08:27:23;17.60;99.90
47921;DHT22;33686;48.770;9.186;2023-08-06T08:29:49;18.10;99.90
47921;DHT22;33686;48.770;9.186;2023-08-06T08:32:14;18.40;99.90
47921;DHT22;33686;48.770;9.186;2023-08-06T08:34:40;18.70;99.90
47921;DHT22;33686;48.770;9.186;2023-08-06T08:37:05;19.00;99.90
47921;DHT22;33686;48.770;9.186;2023-08-06T08:39:31;19.20;99.90
47921;DHT22;33686;48.770;9.186;2023-08-06T08:41:57;18.90;99.90
47921;DHT22;33686;48.770;9.186;2023-08-06T08:44:22;18.40;99.90
47921;DHT22;33686;48.770;9.186;2023-08-06T08:46:50;17.80;99.90
47921;DHT22;33686;48.770;9.186;2023-08-06T08:49:15;17.50;99.90
47921;DHT22;33686;48.770;9.186;2023-08-06T08:51:42;17.70;99.90
47921;DHT22;33686;48.770;9.186;2023-08-06T08:54:08;17.50;99.90
47921;DHT22;33686;48.770;9.186;2023-08-06T08:56:36;17.50;99.90
47921;DHT22;33686;48.770;9.186;2023-08-06T08:59:02;17.30;99.90
47921;DHT22;33686;48.770;9.186;2023-08-06T09:01:27;17.20;99.90
47921;DHT22;33686;48.770;9.186;2023-08-06T09:03:54;17.20;99.90
47921;DHT22;33686;48.770;9.186;2023-08-06T09:06:20;17.30;99.90
47921;DHT22;33686;48.770;9.186;2023-08-06T09:11:32;17.40;99.90
47921;DHT22;33686;48.770;9.186;2023-08-06T09:14:05;17.50;99.90
47921;DHT22;33686;48.770;9.186;2023-08-06T09:16:33;17.70;99.90
47921;DHT22;33686;48.770;9.186;2023-08-06T09:19:06;18.10;99.90
47921;DHT22;33686;48.770;9.186;2023-08-06T09:21:31;18.20;99.90
47921;DHT22;33686;48.770;9.186;2023-08-06T09:23:58;18.30;99.90
47921;DHT22;33686;48.770;9.186;2023-08-06T09:26:24;18.40;99.90
47921;DHT22;33686;48.770;9.186;2023-08-06T09:28:50;18.40;99.90
47921;DHT22;33686;48.770;9.186;2023-08-06T09:31:17;19.00;99.90
47921;DHT22;33686;48.770;9.186;2023-08-06T09:33:43;18.90;99.90
47921;DHT22;33686;48.770;9.186;2023-08-06T09:36:10;18.90;99.90
47921;DHT22;33686;48.770;9.186;2023-08-06T09:38:39;19.00;99.90
47921;DHT22;33686;48.770;9.186;2023-08-06T09:41:05;18.90;99.90
47921;DHT22;33686;48.770;9.186;2023-08-06T09:43:39;18.60;99.90
47921;DHT22;33686;48.770;9.186;2023-08-06T09:46:10;18.70;99.90
47921;DHT22;33686;48.770;9.186;2023-08-06T09:48:36;18.30;99.90
47921;DHT22;33686;48.770;9.186;2023-08-06T09:51:01;18.10;99.90
47921;DHT22;33686;48.770;9.186;2023-08-06T09:53:27;18.30;99.90
47921;DHT22;33686;48.770;9.186;2023-08-06T09:55:54;18.40;99.90
47921;DHT22;33686;48.770;9.186;2023-08-06T09:58:20;18.30;99.90
47921;DHT22;33686;48.770;9.186;2023-08-06T10:00:47;18.40;99.90
47921;DHT22;33686;48.770;9.186;2023-08-06T10:03:13;18.20;99.90
47921;DHT22;33686;48.770;9.186;2023-08-06T10:05:39;18.00;99.90
47921;DHT22;33686;48.770;9.186;2023-08-06T10:08:05;18.10;99.90
47921;DHT22;33686;48.770;9.186;2023-08-06T10:10:32;18.00;99.90
47921;DHT22;33686;48.770;9.186;2023-08-06T10:12:58;18.00;99.90
47921;DHT22;33686;48.770;9.186;2023-08-06T10:15:25;17.80;99.90
47921;DHT22;33686;48.770;9.186;2023-08-06T10:17:51;17.70;99.90
47921;DHT22;33686;48.770;9.186;2023-08-06T10:20:18;17.70;99.90
47921;DHT22;33686;48.770;9.186;2023-08-06T10:22:45;17.50;99.90
47921;DHT22;33686;48.770;9.186;2023-08-06T10:25:10;17.40;99.90
47921;DHT22;33686;48.770;9.186;2023-08-06T10:27:39;17.40;99.90
47921;DHT22;33686;48.770;9.186;2023-08-06T10:32:46;17.10;99.90
47921;DHT22;33686;48.770;9.186;2023-08-06T10:35:27;17.10;99.90
47921;DHT22;33686;48.770;9.186;2023-08-06T10:37:53;17.30;99.90
47921;DHT22;33686;48.770;9.186;2023-08-06T10:40:20;17.30;99.90
47921;DHT22;33686;48.770;9.186;2023-08-06T10:42:46;17.40;99.90
47921;DHT22;33686;48.770;9.186;2023-08-06T10:45:15;17.30;99.90
47921;DHT22;33686;48.770;9.186;2023-08-06T10:47:41;17.40;99.90
47921;DHT22;33686;48.770;9.186;2023-08-06T10:50:07;17.70;99.90
47921;DHT22;33686;48.770;9.186;2023-08-06T10:52:34;17.70;99.90
47921;DHT22;33686;48.770;9.186;2023-08-06T10:54:59;17.70;99.90
47921;DHT22;33686;48.770;9.186;2023-08-06T10:57:25;17.50;99.90
47921;DHT22;33686;48.770;9.186;2023-08-06T10:59:50;17.50;99.90
47921;DHT22;33686;48.770;9.186;2023-08-06T11:02:16;17.50;99.90
47921;DHT22;33686;48.770;9.186;2023-08-06T11:04:42;17.50;99.90
47921;DHT22;33686;48.770;9.186;2023-08-06T11:07:07;17.80;99.90
47921;DHT22;33686;48.770;9.186;2023-08-06T11:09:33;17.70;99.90
47921;DHT22;33686;48.770;9.186;2023-08-06T11:11:58;17.40;99.90
47921;DHT22;33686;48.770;9.186;2023-08-06T11:14:24;17.20;99.90
47921;DHT22;33686;48.770;9.186;2023-08-06T11:16:50;16.90;99.90
47921;DHT22;33686;48.770;9.186;2023-08-06T11:19:15;16.90;99.90
47921;DHT22;33686;48.770;9.186;2023-08-06T11:21:42;16.70;99.90
47921;DHT22;33686;48.770;9.186;2023-08-06T11:24:12;16.60;99.90
47921;DHT22;33686;48.770;9.186;2023-08-06T11:26:37;16.70;99.90
47921;DHT22;33686;48.770;9.186;2023-08-06T11:29:05;16.60;99.90
47921;DHT22;33686;48.770;9.186;2023-08-06T11:31:31;16.70;99.90
47921;DHT22;33686;48.770;9.186;2023-08-06T11:33:56;16.70;99.90
47921;DHT22;33686;48.770;9.186;2023-08-06T11:36:28;17.00;99.90
47921;DHT22;33686;48.770;9.186;2023-08-06T11:38:55;17.10;99.90
47921;DHT22;33686;48.770;9.186;2023-08-06T11:41:20;17.10;99.90
47921;DHT22;33686;48.770;9.186;2023-08-06T11:43:46;17.10;99.90
47921;DHT22;33686;48.770;9.186;2023-08-06T11:46:11;16.90;99.90
47921;DHT22;33686;48.770;9.186;2023-08-06T11:48:52;16.90;99.90
47921;DHT22;33686;48.770;9.186;2023-08-06T11:51:18;16.90;99.90
47921;DHT22;33686;48.770;9.186;2023-08-06T11:53:49;16.90;99.90
47921;DHT22;33686;48.770;9.186;2023-08-06T11:56:15;16.80;99.90
47921;DHT22;33686;48.770;9.186;2023-08-06T11:58:41;16.20;99.90
47921;DHT22;33686;48.770;9.186;2023-08-06T12:01:06;16.20;99.90
47921;DHT22;33686;48.770;9.186;2023-08-06T12:03:32;16.30;99.90
47921;DHT22;33686;48.770;9.186;2023-08-06T12:05:57;16.10;99.90
47921;DHT22;33686;48.770;9.186;2023-08-06T12:08:26;16.10;99.90
47921;DHT22;33686;48.770;9.186;2023-08-06T12:10:51;16.10;99.90
47921;DHT22;33686;48.770;9.186;2023-08-06T12:13:19;16.00;99.90
47921;DHT22;33686;48.770;9.186;2023-08-06T12:15:44;16.00;99.90
47921;DHT22;33686;48.770;9.186;2023-08-06T12:18:10;15.90;99.90
47921;DHT22;33686;48.770;9.186;2023-08-06T12:20:36;15.90;99.90
47921;DHT22;33686;48.770;9.186;2023-08-06T12:23:01;16.00;99.90
47921;DHT22;33686;48.770;9.186;2023-08-06T12:25:27;16.30;99.90
47921;DHT22;33686;48.770;9.186;2023-08-06T12:27:54;16.20;99.90
47921;DHT22;33686;48.770;9.186;2023-08-06T12:30:19;16.30;99.90
47921;DHT22;33686;48.770;9.186;2023-08-06T12:32:45;16.30;99.90
47921;DHT22;33686;48.770;9.186;2023-08-06T12:35:10;16.10;99.90
47921;DHT22;33686;48.770;9.186;2023-08-06T12:37:36;16.40;99.90
47921;DHT22;33686;48.770;9.186;2023-08-06T12:40:04;16.70;99.90
47921;DHT22;33686;48.770;9.186;2023-08-06T12:42:29;16.50;99.90
47921;DHT22;33686;48.770;9.186;2023-08-06T12:44:55;16.70;99.90
47921;DHT22;33686;48.770;9.186;2023-08-06T12:47:21;16.90;99.90
47921;DHT22;33686;48.770;9.186;2023-08-06T12:49:46;17.00;99.90
47921;DHT22;33686;48.770;9.186;2023-08-06T12:52:12;17.20;99.90
47921;DHT22;33686;48.770;9.186;2023-08-06T12:54:40;17.60;99.90
47921;DHT22;33686;48.770;9.186;2023-08-06T12:57:06;17.80;99.90
47921;DHT22;33686;48.770;9.186;2023-08-06T12:59:31;18.10;99.90
47921;DHT22;33686;48.770;9.186;2023-08-06T13:01:58;18.00;99.90
47921;DHT22;33686;48.770;9.186;2023-08-06T13:04:24;17.90;99.90
47921;DHT22;33686;48.770;9.186;2023-08-06T13:06:49;17.60;99.90
47921;DHT22;33686;48.770;9.186;2023-08-06T13:09:15;17.50;99.90
47921;DHT22;33686;48.770;9.186;2023-08-06T13:11:41;17.50;99.90
47921;DHT22;33686;48.770;9.186;2023-08-06T13:14:11;17.60;99.90
47921;DHT22;33686;48.770;9.186;2023-08-06T13:16:38;17.80;99.90
47921;DHT22;33686;48.770;9.186;2023-08-06T13:19:04;17.80;99.90
47921;DHT22;33686;48.770;9.186;2023-08-06T13:21:34;17.80;99.90
47921;DHT22;33686;48.770;9.186;2023-08-06T13:24:03;17.80;99.90
47921;DHT22;33686;48.770;9.186;2023-08-06T13:26:29;18.00;99.90
47921;DHT22;33686;48.770;9.186;2023-08-06T13:28:56;17.80;99.90
47921;DHT22;33686;48.770;9.186;2023-08-06T13:31:21;17.90;99.90
47921;DHT22;33686;48.770;9.186;2023-08-06T13:33:47;18.00;99.90
47921;DHT22;33686;48.770;9.186;2023-08-06T13:36:13;18.00;99.90
47921;DHT22;33686;48.770;9.186;2023-08-06T13:38:39;18.00;99.90
47921;DHT22;33686;48.770;9.186;2023-08-06T13:41:04;18.00;99.90
47921;DHT22;33686;48.770;9.186;2023-08-06T13:43:31;17.90;99.90
47921;DHT22;33686;48.770;9.186;2023-08-06T13:45:56;17.80;99.90
47921;DHT22;33686;48.770;9.186;2023-08-06T13:48:22;17.80;99.90
47921;DHT22;33686;48.770;9.186;2023-08-06T13:50:48;17.80;99.90
47921;DHT22;33686;48.770;9.186;2023-08-06T13:53:14;17.70;99.90
47921;DHT22;33686;48.770;9.186;2023-08-06T13:55:39;17.80;99.90
47921;DHT22;33686;48.770;9.186;2023-08-06T13:58:05;17.60;99.90
47921;DHT22;33686;48.770;9.186;2023-08-06T14:00:30;17.60;99.90
47921;DHT22;33686;48.770;9.186;2023-08-06T14:02:56;17.80;99.90
47921;DHT22;33686;48.770;9.186;2023-08-06T14:05:21;17.80;99.90
47921;DHT22;33686;48.770;9.186;2023-08-06T14:07:47;17.70;99.90
47921;DHT22;33686;48.770;9.186;2023-08-06T14:10:12;17.60;99.90
47921;DHT22;33686;48.770;9.186;2023-08-06T14:12:38;17.50;99.90
47921;DHT22;33686;48.770;9.186;2023-08-06T14:15:04;17.00;99.90
47921;DHT22;33686;48.770;9.186;2023-08-06T14:17:29;17.20;99.90
47921;DHT22;33686;48.770;9.186;2023-08-06T14:19:55;17.40;99.90
47921;DHT22;33686;48.770;9.186;2023-08-06T14:22:21;17.40;99.90
47921;DHT22;33686;48.770;9.186;2023-08-06T14:24:47;17.60;99.90
47921;DHT22;33686;48.770;9.186;2023-08-06T14:27:12;17.80;99.90
47921;DHT22;33686;48.770;9.186;2023-08-06T14:29:38;17.70;99.90
47921;DHT22;33686;48.770;9.186;2023-08-06T14:32:04;17.50;99.90
47921;DHT22;33686;48.770;9.186;2023-08-06T14:34:29;17.70;99.90
47921;DHT22;33686;48.770;9.186;2023-08-06T14:36:55;17.90;99.90
47921;DHT22;33686;48.770;9.186;2023-08-06T14:39:20;18.00;99.90
47921;DHT22;33686;48.770;9.186;2023-08-06T14:41:46;17.90;99.90
47921;DHT22;33686;48.770;9.186;2023-08-06T14:44:12;17.50;99.90
47921;DHT22;33686;48.770;9.186;2023-08-06T14:46:38;17.50;99.90
47921;DHT22;33686;48.770;9.186;2023-08-06T14:49:03;17.20;99.90
47921;DHT22;33686;48.770;9.186;2023-08-06T14:51:29;16.90;99.90
47921;DHT22;33686;48.770;9.186;2023-08-06T14:53:54;16.80;99.90
47921;DHT22;33686;48.770;9.186;2023-08-06T14:56:20;16.90;99.90
47921;DHT22;33686;48.770;9.186;2023-08-06T14:58:45;16.80;99.90
47921;DHT22;33686;48.770;9.186;2023-08-06T15:01:12;16.80;99.90
47921;DHT22;33686;48.770;9.186;2023-08-06T15:03:37;16.70;99.90
47921;DHT22;33686;48.770;9.186;2023-08-06T15:06:03;16.50;99.90
47921;DHT22;33686;48.770;9.186;2023-08-06T15:08:28;16.30;99.90
47921;DHT22;33686;48.770;9.186;2023-08-06T15:10:54;16.30;99.90
47921;DHT22;33686;48.770;9.186;2023-08-06T15:13:20;16.50;99.90
47921;DHT22;33686;48.770;9.186;2023-08-06T15:15:46;16.60;99.90
47921;DHT22;33686;48.770;9.186;2023-08-06T15:18:11;16.60;99.90
47921;DHT22;33686;48.770;9.186;2023-08-06T15:20:37;16.70;99.90
47921;DHT22;33686;48.770;9.186;2023-08-06T15:23:03;16.80;99.90
47921;DHT22;33686;48.770;9.186;2023-08-06T15:25:28;17.20;99.90
47921;DHT22;33686;48.770;9.186;2023-08-06T15:27:54;17.40;99.90
47921;DHT22;33686;48.770;9.186;2023-08-06T15:30:19;17.50;99.90
47921;DHT22;33686;48.770;9.186;2023-08-06T15:32:46;17.60;99.90
47921;DHT22;33686;48.770;9.186;2023-08-06T15:35:12;17.90;99.90
47921;DHT22;33686;48.770;9.186;2023-08-06T15:37:38;18.10;99.90
47921;DHT22;33686;48.770;9.186;2023-08-06T15:40:04;18.00;99.90
47921;DHT22;33686;48.770;9.186;2023-08-06T15:42:30;17.90;99.90
47921;DHT22;33686;48.770;9.186;2023-08-06T15:44:56;18.10;99.90
47921;DHT22;33686;48.770;9.186;2023-08-06T15:47:21;18.10;99.90
47921;DHT22;33686;48.770;9.186;2023-08-06T15:49:47;18.20;99.90
47921;DHT22;33686;48.770;9.186;2023-08-06T15:52:12;18.00;99.90
47921;DHT22;33686;48.770;9.186;2023-08-06T15:54:38;18.00;99.90
47921;DHT22;33686;48.770;9.186;2023-08-06T15:57:03;18.20;99.90
47921;DHT22;33686;48.770;9.186;2023-08-06T15:59:29;18.20;99.90
47921;DHT22;33686;48.770;9.186;2023-08-06T16:01:55;18.10;99.90
47921;DHT22;33686;48.770;9.186;2023-08-06T16:04:26;18.30;99.90
47921;DHT22;33686;48.770;9.186;2023-08-06T16:06:52;18.20;99.90
47921;DHT22;33686;48.770;9.186;2023-08-06T16:09:17;17.70;99.90
47921;DHT22;33686;48.770;9.186;2023-08-06T16:11:44;17.50;99.90
47921;DHT22;33686;48.770;9.186;2023-08-06T16:14:09;17.60;99.90
47921;DHT22;33686;48.770;9.186;2023-08-06T16:16:35;17.80;99.90
47921;DHT22;33686;48.770;9.186;2023-08-06T16:19:01;17.90;99.90
47921;DHT22;33686;48.770;9.186;2023-08-06T16:21:26;17.80;99.90
47921;DHT22;33686;48.770;9.186;2023-08-06T16:23:52;17.90;99.90
47921;DHT22;33686;48.770;9.186;2023-08-06T16:26:19;17.90;99.90
47921;DHT22;33686;48.770;9.186;2023-08-06T16:28:45;17.60;99.90
47921;DHT22;33686;48.770;9.186;2023-08-06T16:31:10;17.30;99.90
47921;DHT22;33686;48.770;9.186;2023-08-06T16:33:36;17.20;99.90
47921;DHT22;33686;48.770;9.186;2023-08-06T16:36:04;17.20;99.90
47921;DHT22;33686;48.770;9.186;2023-08-06T16:38:30;17.00;99.90
47921;DHT22;33686;48.770;9.186;2023-08-06T16:40:56;16.90;99.90
47921;DHT22;33686;48.770;9.186;2023-08-06T16:43:25;16.70;99.90
47921;DHT22;33686;48.770;9.186;2023-08-06T16:45:53;16.50;99.90
47921;DHT22;33686;48.770;9.186;2023-08-06T16:48:20;16.60;99.90
47921;DHT22;33686;48.770;9.186;2023-08-06T16:50:52;16.70;99.90
47921;DHT22;33686;48.770;9.186;2023-08-06T16:53:18;16.60;99.90
47921;DHT22;33686;48.770;9.186;2023-08-06T16:55:43;16.40;99.90
47921;DHT22;33686;48.770;9.186;2023-08-06T16:58:09;16.20;99.90
47921;DHT22;33686;48.770;9.186;2023-08-06T17:00:34;16.00;99.90
47921;DHT22;33686;48.770;9.186;2023-08-06T17:03:00;15.90;99.90
47921;DHT22;33686;48.770;9.186;2023-08-06T17:05:25;15.80;99.90
47921;DHT22;33686;48.770;9.186;2023-08-06T17:07:51;15.50;99.90
47921;DHT22;33686;48.770;9.186;2023-08-06T17:10:17;15.40;99.90
47921;DHT22;33686;48.770;9.186;2023-08-06T17:12:47;15.40;99.90
47921;DHT22;33686;48.770;9.186;2023-08-06T17:15:14;15.50;99.90
47921;DHT22;33686;48.770;9.186;2023-08-06T17:17:39;15.40;99.90
47921;DHT22;33686;48.770;9.186;2023-08-06T17:20:05;15.40;99.90
47921;DHT22;33686;48.770;9.186;2023-08-06T17:22:31;15.50;99.90
47921;DHT22;33686;48.770;9.186;2023-08-06T17:24:56;15.50;99.90
47921;DHT22;33686;48.770;9.186;2023-08-06T17:27:22;15.60;99.90
47921;DHT22;33686;48.770;9.186;2023-08-06T17:29:48;15.50;99.90
47921;DHT22;33686;48.770;9.186;2023-08-06T17:32:14;15.60;99.90
47921;DHT22;33686;48.770;9.186;2023-08-06T17:34:40;15.50;99.90
47921;DHT22;33686;48.770;9.186;2023-08-06T17:37:05;15.60;99.90
47921;DHT22;33686;48.770;9.186;2023-08-06T17:39:31;15.60;99.90
47921;DHT22;33686;48.770;9.186;2023-08-06T17:41:57;15.50;99.90
47921;DHT22;33686;48.770;9.186;2023-08-06T17:44:22;15.40;99.90
47921;DHT22;33686;48.770;9.186;2023-08-06T17:46:48;15.40;99.90
47921;DHT22;33686;48.770;9.186;2023-08-06T17:49:13;15.40;99.90
47921;DHT22;33686;48.770;9.186;2023-08-06T17:51:39;15.40;99.90
47921;DHT22;33686;48.770;9.186;2023-08-06T17:54:04;15.40;99.90
47921;DHT22;33686;48.770;9.186;2023-08-06T17:56:30;15.30;99.90
47921;DHT22;33686;48.770;9.186;2023-08-06T17:58:55;15.30;99.90
47921;DHT22;33686;48.770;9.186;2023-08-06T18:01:22;15.30;99.90
47921;DHT22;33686;48.770;9.186;2023-08-06T18:03:47;15.30;99.90
47921;DHT22;33686;48.770;9.186;2023-08-06T18:06:15;15.20;99.90
47921;DHT22;33686;48.770;9.186;2023-08-06T18:08:40;15.20;99.90
47921;DHT22;33686;48.770;9.186;2023-08-06T18:11:06;15.10;99.90
47921;DHT22;33686;48.770;9.186;2023-08-06T18:13:31;15.00;99.90
47921;DHT22;33686;48.770;9.186;2023-08-06T18:15:57;15.00;99.90
47921;DHT22;33686;48.770;9.186;2023-08-06T18:18:23;15.00;99.90
47921;DHT22;33686;48.770;9.186;2023-08-06T18:20:48;14.90;99.90
47921;DHT22;33686;48.770;9.186;2023-08-06T18:23:14;14.80;99.90
47921;DHT22;33686;48.770;9.186;2023-08-06T18:25:39;14.80;99.90
47921;DHT22;33686;48.770;9.186;2023-08-06T18:28:05;14.70;99.90
47921;DHT22;33686;48.770;9.186;2023-08-06T18:30:30;14.60;99.90
47921;DHT22;33686;48.770;9.186;2023-08-06T18:32:59;14.60;99.90
47921;DHT22;33686;48.770;9.186;2023-08-06T18:35:24;14.60;99.90
47921;DHT22;33686;48.770;9.186;2023-08-06T18:37:50;14.50;99.90
47921;DHT22;33686;48.770;9.186;2023-08-06T18:40:16;14.50;99.90
47921;DHT22;33686;48.770;9.186;2023-08-06T18:42:42;14.50;99.90
47921;DHT22;33686;48.770;9.186;2023-08-06T18:45:08;14.50;99.90
47921;DHT22;33686;48.770;9.186;2023-08-06T18:47:33;14.40;99.90
47921;DHT22;33686;48.770;9.186;2023-08-06T18:49:59;14.40;99.90
47921;DHT22;33686;48.770;9.186;2023-08-06T18:52:25;14.40;99.90
47921;DHT22;33686;48.770;9.186;2023-08-06T18:54:50;14.30;99.90
47921;DHT22;33686;48.770;9.186;2023-08-06T18:57:16;14.30;99.90
47921;DHT22;33686;48.770;9.186;2023-08-06T18:59:44;14.40;99.90
47921;DHT22;33686;48.770;9.186;2023-08-06T19:02:09;14.40;99.90
47921;DHT22;33686;48.770;9.186;2023-08-06T19:04:35;14.30;99.90
47921;DHT22;33686;48.770;9.186;2023-08-06T19:07:01;14.40;99.90
47921;DHT22;33686;48.770;9.186;2023-08-06T19:09:26;14.40;99.90
47921;DHT22;33686;48.770;9.186;2023-08-06T19:11:52;14.50;99.90
47921;DHT22;33686;48.770;9.186;2023-08-06T19:14:17;14.40;99.90
47921;DHT22;33686;48.770;9.186;2023-08-06T19:16:43;14.40;99.90
47921;DHT22;33686;48.770;9.186;2023-08-06T19:19:11;14.40;99.90
47921;DHT22;33686;48.770;9.186;2023-08-06T19:21:37;14.40;99.90
47921;DHT22;33686;48.770;9.186;2023-08-06T19:24:02;14.30;99.90
47921;DHT22;33686;48.770;9.186;2023-08-06T19:26:28;14.40;99.90
47921;DHT22;33686;48.770;9.186;2023-08-06T19:28:54;14.40;99.90
47921;DHT22;33686;48.770;9.186;2023-08-06T19:31:20;14.30;99.90
47921;DHT22;33686;48.770;9.186;2023-08-06T19:33:45;14.40;99.90
47921;DHT22;33686;48.770;9.186;2023-08-06T19:36:11;14.40;99.90
47921;DHT22;33686;48.770;9.186;2023-08-06T19:38:36;14.40;99.90
47921;DHT22;33686;48.770;9.186;2023-08-06T19:41:06;14.40;99.90
47921;DHT22;33686;48.770;9.186;2023-08-06T19:43:34;14.40;99.90
47921;DHT22;33686;48.770;9.186;2023-08-06T19:46:00;14.40;99.90
47921;DHT22;33686;48.770;9.186;2023-08-06T19:48:25;14.50;99.90
47921;DHT22;33686;48.770;9.186;2023-08-06T19:50:52;14.40;99.90
47921;DHT22;33686;48.770;9.186;2023-08-06T19:53:18;14.40;99.90
47921;DHT22;33686;48.770;9.186;2023-08-06T19:55:43;14.40;99.90
47921;DHT22;33686;48.770;9.186;2023-08-06T19:58:09;14.40;99.90
47921;DHT22;33686;48.770;9.186;2023-08-06T20:00:34;14.40;99.90
47921;DHT22;33686;48.770;9.186;2023-08-06T20:03:00;14.40;99.90
47921;DHT22;33686;48.770;9.186;2023-08-06T20:05:26;14.40;99.90
47921;DHT22;33686;48.770;9.186;2023-08-06T20:07:52;14.40;99.90
47921;DHT22;33686;48.770;9.186;2023-08-06T20:10:17;14.40;99.90
47921;DHT22;33686;48.770;9.186;2023-08-06T20:12:43;14.30;99.90
47921;DHT22;33686;48.770;9.186;2023-08-06T20:15:08;14.40;99.90
47921;DHT22;33686;48.770;9.186;2023-08-06T20:17:34;14.40;99.90
47921;DHT22;33686;48.770;9.186;2023-08-06T20:20:00;14.40;99.90
47921;DHT22;33686;48.770;9.186;2023-08-06T20:22:25;14.30;99.90
47921;DHT22;33686;48.770;9.186;2023-08-06T20:24:51;14.30;99.90
47921;DHT22;33686;48.770;9.186;2023-08-06T20:27:17;14.30;99.90
47921;DHT22;33686;48.770;9.186;2023-08-06T20:29:42;14.20;99.90
47921;DHT22;33686;48.770;9.186;2023-08-06T20:32:08;14.20;99.90
47921;DHT22;33686;48.770;9.186;2023-08-06T20:34:33;14.10;99.90
47921;DHT22;33686;48.770;9.186;2023-08-06T20:36:59;14.10;99.90
47921;DHT22;33686;48.770;9.186;2023-08-06T20:39:24;14.00;99.90
47921;DHT22;33686;48.770;9.186;2023-08-06T20:41:50;13.90;99.90
47921;DHT22;33686;48.770;9.186;2023-08-06T20:44:15;13.80;99.90